Time;durP1;ratioP1;P1;durP2;ratioP2;P2;SDS_P1;SDS_P2;PMS_P1;PMS_P2;Temp;Humidity;BMP_temperature;BMP_pressure;BME280_temperature;BME280_humidity;BME280_pressure;Samples;Min_cycle;Max_cycle;Signal;HPM_P1;HPM_P2
2022/06/12 00:01:29;;;;;;;15.85;5.15;;;18.80;99.90;;;;;;5064761;28;20381;-73
2022/06/12 00:03:55;;;;;;;12.88;5.28;;;18.80;99.90;;;;;;5063921;28;20024;-74
2022/06/12 00:06:22;;;;;;;13.77;5.38;;;18.80;99.90;;;;;;5053395;28;20108;-74
2022/06/12 00:08:48;;;;;;;12.27;5.43;;;18.80;99.90;;;;;;5069732;28;20056;-74
2022/06/12 00:11:16;;;;;;;10.20;5.30;;;18.70;99.90;;;;;;5058279;28;20040;-74
2022/06/12 00:13:46;;;;;;;15.88;4.88;;;18.70;99.90;;;;;;5042302;28;20494;-74
2022/06/12 00:16:16;;;;;;;11.10;5.22;;;18.60;99.90;;;;;;5052941;28;20393;-74
2022/06/12 00:18:42;;;;;;;9.48;4.75;;;18.60;99.90;;;;;;5067168;28;20033;-74
2022/06/12 00:21:11;;;;;;;12.68;4.80;;;18.50;99.90;;;;;;5053191;28;20029;-74
2022/06/12 00:23:42;;;;;;;10.18;4.95;;;18.40;99.90;;;;;;5058837;28;20380;-73
2022/06/12 00:26:08;;;;;;;12.68;5.20;;;18.40;99.90;;;;;;5065447;28;20036;-73
2022/06/12 00:28:34;;;;;;;9.80;5.82;;;18.30;99.90;;;;;;5061001;28;20118;-72
2022/06/12 00:31:00;;;;;;;8.85;5.20;;;18.30;99.90;;;;;;5055688;28;20031;-74
2022/06/12 00:33:27;;;;;;;10.30;4.40;;;18.30;99.90;;;;;;5058939;28;20037;-74
2022/06/12 00:35:52;;;;;;;10.68;5.20;;;18.30;99.90;;;;;;5059746;28;20061;-72
2022/06/12 00:38:18;;;;;;;10.60;5.53;;;18.30;99.90;;;;;;5061831;28;20059;-74
2022/06/12 00:40:44;;;;;;;9.93;5.13;;;18.30;99.90;;;;;;5055851;28;20021;-74
2022/06/12 00:43:13;;;;;;;8.50;5.07;;;18.20;99.90;;;;;;5056685;28;20466;-74
2022/06/12 00:45:44;;;;;;;8.23;4.78;;;18.00;99.90;;;;;;5049238;28;20480;-73
2022/06/12 00:48:12;;;;;;;15.63;6.10;;;18.00;99.90;;;;;;5051526;28;20098;-74
2022/06/12 00:50:42;;;;;;;11.88;5.00;;;18.00;99.90;;;;;;5069640;28;20028;-73
2022/06/12 00:53:26;;;;;;;9.65;4.50;;;17.90;99.90;;;;;;5057999;28;20024;-73
2022/06/12 00:56:11;;;;;;;11.32;4.60;;;18.00;99.90;;;;;;5068176;28;20037;-73
2022/06/12 00:58:44;;;;;;;10.57;5.20;;;17.90;99.90;;;;;;5054450;28;20024;-75
2022/06/12 01:01:34;;;;;;;11.05;4.95;;;17.90;99.90;;;;;;5056645;28;20480;-74
2022/06/12 01:06:47;;;;;;;13.05;5.32;;;17.90;99.90;;;;;;5054960;28;20090;-74
2022/06/12 01:09:19;;;;;;;11.13;5.78;;;17.90;99.90;;;;;;5048428;28;20021;-73
2022/06/12 01:11:47;;;;;;;13.18;6.10;;;17.80;99.90;;;;;;5050363;28;20075;-76
2022/06/12 01:14:17;;;;;;;11.75;6.43;;;17.80;99.90;;;;;;5045134;28;20107;-75
2022/06/12 01:16:45;;;;;;;12.50;5.13;;;17.70;99.90;;;;;;5044129;28;20106;-74
2022/06/12 01:19:34;;;;;;;13.60;5.85;;;17.70;99.90;;;;;;5025049;28;20033;-75
2022/06/12 01:22:21;;;;;;;10.88;5.45;;;17.70;99.90;;;;;;5063533;28;20114;-74
2022/06/12 01:25:19;;;;;;;14.07;6.95;;;17.70;99.90;;;;;;5046418;28;20428;-74
2022/06/12 01:28:44;;;;;;;13.45;6.20;;;17.60;99.90;;;;;;5040998;28;20025;-74
2022/06/12 01:31:39;;;;;;;15.13;6.18;;;17.60;99.90;;;;;;5043131;28;20112;-68
2022/06/12 01:34:50;;;;;;;11.23;6.35;;;17.50;99.90;;;;;;5041997;28;20052;-75
2022/06/12 01:38:01;;;;;;;10.85;5.38;;;17.50;99.90;;;;;;5042522;28;20091;-74
2022/06/12 01:40:33;;;;;;;8.48;5.85;;;17.50;99.90;;;;;;5045644;28;20025;-75
2022/06/12 01:43:23;;;;;;;12.30;6.18;;;17.50;99.90;;;;;;5050458;28;20400;-72
2022/06/12 01:46:17;;;;;;;12.48;5.93;;;17.50;99.90;;;;;;5051049;28;20091;-75
2022/06/12 01:49:24;;;;;;;13.48;6.57;;;17.50;99.90;;;;;;5052105;28;20092;-75
2022/06/12 01:52:01;;;;;;;12.68;6.50;;;17.40;99.90;;;;;;5053914;28;20052;-72
2022/06/12 01:54:50;;;;;;;16.42;7.20;;;17.40;99.90;;;;;;5068278;28;20092;-73
2022/06/12 01:57:32;;;;;;;11.43;7.18;;;17.30;99.90;;;;;;5052287;28;20120;-74
2022/06/12 02:00:12;;;;;;;16.63;8.02;;;17.30;99.90;;;;;;5051609;28;20037;-75
2022/06/12 02:02:53;;;;;;;16.30;7.93;;;17.30;99.90;;;;;;5051162;28;20028;-72
2022/06/12 02:05:28;;;;;;;14.90;6.25;;;17.30;99.90;;;;;;5038726;28;20028;-73
2022/06/12 02:08:06;;;;;;;13.40;6.90;;;17.20;99.90;;;;;;5053246;28;20032;-74
2022/06/12 02:10:49;;;;;;;16.52;7.45;;;17.20;99.90;;;;;;5052238;28;20021;-71
2022/06/12 02:13:32;;;;;;;12.07;6.57;;;17.20;99.90;;;;;;5036760;28;20482;-74
2022/06/12 02:16:17;;;;;;;13.20;6.95;;;17.10;99.90;;;;;;5031976;28;20506;-73
2022/06/12 02:18:51;;;;;;;15.38;6.75;;;17.10;99.90;;;;;;5031815;28;20025;-75
2022/06/12 02:21:28;;;;;;;13.93;6.60;;;17.00;99.90;;;;;;5048243;28;20021;-75
2022/06/12 02:24:13;;;;;;;13.43;5.85;;;17.00;99.90;;;;;;5069927;28;20455;-74
2022/06/12 02:26:45;;;;;;;10.48;6.20;;;17.00;99.90;;;;;;5060500;28;20021;-75
2022/06/12 02:29:22;;;;;;;12.77;6.20;;;17.00;99.90;;;;;;5055555;28;20100;-74
2022/06/12 02:31:51;;;;;;;14.43;6.90;;;17.00;99.90;;;;;;5040186;28;20037;-75
2022/06/12 02:34:28;;;;;;;12.60;6.18;;;16.90;99.90;;;;;;5055188;28;20021;-74
2022/06/12 02:37:10;;;;;;;15.90;6.47;;;16.90;99.90;;;;;;5055225;28;20029;-75
2022/06/12 02:39:42;;;;;;;13.18;6.60;;;16.90;99.90;;;;;;5055611;28;20029;-75
2022/06/12 02:42:11;;;;;;;10.27;6.18;;;16.80;99.90;;;;;;5052905;28;20535;-74
2022/06/12 02:45:00;;;;;;;12.75;7.07;;;16.80;99.90;;;;;;5074534;28;20034;-74
2022/06/12 02:47:32;;;;;;;11.50;6.35;;;16.80;99.90;;;;;;5075555;28;20063;-75
2022/06/12 02:49:58;;;;;;;10.98;6.75;;;16.80;99.90;;;;;;5075511;28;20024;-75
2022/06/12 02:52:52;;;;;;;11.48;6.05;;;16.70;99.90;;;;;;5063556;28;20032;-74
2022/06/12 02:55:45;;;;;;;11.23;5.72;;;16.70;99.90;;;;;;5052586;28;20413;-74
2022/06/12 02:58:45;;;;;;;12.23;5.90;;;16.70;99.90;;;;;;5069576;28;20039;-74
2022/06/12 03:01:16;;;;;;;14.85;6.68;;;16.70;99.90;;;;;;5074973;28;20044;-75
2022/06/12 03:04:07;;;;;;;11.63;6.07;;;16.60;99.90;;;;;;5063794;28;20029;-74
2022/06/12 03:06:34;;;;;;;12.60;6.25;;;16.60;99.90;;;;;;5052823;28;20027;-74
2022/06/12 03:09:02;;;;;;;11.23;6.40;;;16.60;99.90;;;;;;5055333;28;20025;-74
2022/06/12 03:11:33;;;;;;;15.85;6.35;;;16.50;99.90;;;;;;5055019;28;20032;-74
2022/06/12 03:14:00;;;;;;;12.43;7.10;;;16.50;99.90;;;;;;5054299;28;20432;-74
2022/06/12 03:16:30;;;;;;;10.95;5.97;;;16.40;99.90;;;;;;5054871;28;20355;-74
2022/06/12 03:19:09;;;;;;;10.77;5.72;;;16.40;99.90;;;;;;5054970;28;20025;-74
2022/06/12 03:21:46;;;;;;;13.50;5.95;;;16.40;99.90;;;;;;5067797;28;20402;-74
2022/06/12 03:24:15;;;;;;;16.65;6.38;;;16.30;99.90;;;;;;5054639;28;20410;-74
2022/06/12 03:26:55;;;;;;;15.05;5.68;;;16.30;99.90;;;;;;5052816;28;20029;-74
2022/06/12 03:29:21;;;;;;;11.77;6.05;;;16.20;99.90;;;;;;5054865;28;20027;-73
2022/06/12 03:31:57;;;;;;;12.90;6.18;;;16.20;99.90;;;;;;5046906;28;20500;-73
2022/06/12 03:34:35;;;;;;;10.40;5.97;;;16.10;99.90;;;;;;5043924;28;20028;-73
2022/06/12 03:37:26;;;;;;;11.00;5.65;;;16.20;99.90;;;;;;5053001;28;20025;-74
2022/06/12 03:40:11;;;;;;;9.80;6.28;;;16.10;99.90;;;;;;5041424;28;20026;-73
2022/06/12 03:43:13;;;;;;;9.52;5.47;;;16.10;99.90;;;;;;5033990;28;20029;-73
2022/06/12 03:45:46;;;;;;;10.60;5.70;;;16.10;99.90;;;;;;5034491;28;20494;-74
2022/06/12 03:48:29;;;;;;;17.52;5.70;;;16.10;99.90;;;;;;5050532;28;20420;-74
2022/06/12 03:51:10;;;;;;;18.63;5.32;;;16.10;99.90;;;;;;5053086;28;20123;-73
2022/06/12 03:53:41;;;;;;;7.68;5.30;;;16.00;99.90;;;;;;5048436;28;20105;-73
2022/06/12 03:59:20;;;;;;;10.80;5.35;;;16.00;99.90;;;;;;5039797;28;20044;-73
2022/06/12 04:01:47;;;;;;;14.13;5.47;;;16.00;99.90;;;;;;5034112;28;20022;-74
2022/06/12 04:04:15;;;;;;;13.90;4.35;;;16.00;99.90;;;;;;5040614;28;20029;-74
2022/06/12 04:06:42;;;;;;;10.63;5.03;;;15.90;99.90;;;;;;5053575;28;20504;-74
2022/06/12 04:09:18;;;;;;;10.82;4.53;;;15.90;99.90;;;;;;5054055;28;20025;-74
2022/06/12 04:11:57;;;;;;;15.07;4.93;;;15.90;99.90;;;;;;5053103;28;20037;-74
2022/06/12 04:14:30;;;;;;;10.30;4.88;;;15.90;99.90;;;;;;5047914;28;20033;-73
2022/06/12 04:16:57;;;;;;;;;;;15.90;99.90;;;;;;5052852;28;20086;-72
2022/06/12 04:19:26;;;;;;;7.82;4.40;;;15.90;99.90;;;;;;5053359;28;19904;-74
2022/06/12 04:22:12;;;;;;;11.10;5.30;;;15.90;99.90;;;;;;5066327;28;20024;-74
2022/06/12 04:24:49;;;;;;;12.73;5.32;;;15.90;99.90;;;;;;5051806;28;20079;-73
2022/06/12 04:27:20;;;;;;;11.27;4.60;;;15.90;99.90;;;;;;5052875;28;20017;-74
2022/06/12 04:29:54;;;;;;;12.75;5.22;;;15.90;99.90;;;;;;5052953;28;20041;-74
2022/06/12 04:32:21;;;;;;;7.30;4.80;;;15.90;99.90;;;;;;5052709;28;20043;-74
2022/06/12 04:34:47;;;;;;;10.80;5.07;;;15.90;99.90;;;;;;5046450;28;20032;-74
2022/06/12 04:37:15;;;;;;;8.23;4.57;;;15.90;99.90;;;;;;5046963;28;20025;-74
2022/06/12 04:39:42;;;;;;;6.95;4.30;;;15.90;99.90;;;;;;5053131;28;20393;-73
2022/06/12 04:42:08;;;;;;;8.52;4.10;;;15.90;99.90;;;;;;5067494;28;20427;-73
2022/06/12 04:44:34;;;;;;;8.63;4.43;;;15.90;99.90;;;;;;5071976;28;20070;-74
2022/06/12 04:47:02;;;;;;;8.95;4.50;;;15.90;99.90;;;;;;5057379;28;20033;-73
2022/06/12 04:49:31;;;;;;;13.00;3.70;;;15.90;99.90;;;;;;5052575;28;20029;-74
2022/06/12 04:51:58;;;;;;;8.25;3.72;;;15.90;99.90;;;;;;5062470;28;20040;-74
2022/06/12 04:54:25;;;;;;;11.70;3.90;;;15.90;99.90;;;;;;5052463;28;20103;-74
2022/06/12 04:56:51;;;;;;;10.00;4.20;;;15.90;99.90;;;;;;5053236;28;20029;-74
2022/06/12 04:59:19;;;;;;;12.38;4.25;;;16.00;99.90;;;;;;5052844;28;20025;-74
2022/06/12 05:01:46;;;;;;;8.15;4.50;;;16.00;99.90;;;;;;5053143;28;20029;-74
2022/06/12 05:04:12;;;;;;;13.88;3.90;;;16.00;99.90;;;;;;5050380;28;20067;-74
2022/06/12 05:06:39;;;;;;;7.47;3.78;;;16.00;99.90;;;;;;5073177;28;20060;-74
2022/06/12 05:09:07;;;;;;;10.32;3.75;;;16.00;99.90;;;;;;5072602;28;20533;-74
2022/06/12 05:11:33;;;;;;;10.07;4.07;;;16.00;99.90;;;;;;5056687;28;20062;-74
2022/06/12 05:13:59;;;;;;;9.95;3.55;;;16.00;99.90;;;;;;5052256;28;20496;-74
2022/06/12 05:16:56;;;;;;;8.60;4.10;;;16.10;99.90;;;;;;5062814;28;20520;-73
2022/06/12 05:19:25;;;;;;;9.10;3.55;;;16.10;99.90;;;;;;5041382;28;20041;-74
2022/06/12 05:21:51;;;;;;;10.82;3.22;;;16.10;99.90;;;;;;5038825;28;20032;-74
2022/06/12 05:24:17;;;;;;;8.90;3.10;;;16.10;99.90;;;;;;5036234;28;20021;-74
2022/06/12 05:26:45;;;;;;;13.07;3.45;;;16.10;99.90;;;;;;5038642;28;20025;-72
2022/06/12 05:29:24;;;;;;;13.07;2.90;;;16.20;99.90;;;;;;5072433;28;20389;-73
2022/06/12 05:31:51;;;;;;;11.65;3.03;;;16.20;99.90;;;;;;5072989;28;20105;-73
2022/06/12 05:34:17;;;;;;;7.97;2.58;;;16.20;99.90;;;;;;5062645;28;20025;-73
2022/06/12 05:36:43;;;;;;;11.05;3.30;;;16.20;99.90;;;;;;5033015;28;20026;-74
2022/06/12 05:39:10;;;;;;;8.75;3.60;;;16.30;99.90;;;;;;5046056;28;20029;-72
2022/06/12 05:41:35;;;;;;;10.27;3.63;;;16.30;99.90;;;;;;5052521;28;20420;-74
2022/06/12 05:44:01;;;;;;;8.80;2.95;;;16.30;99.90;;;;;;5059391;28;20036;-73
2022/06/12 05:46:27;;;;;;;6.70;3.22;;;16.30;99.90;;;;;;5072830;28;20028;-74
2022/06/12 05:48:52;;;;;;;11.45;2.92;;;16.40;99.90;;;;;;5058562;28;20053;-73
2022/06/12 05:51:19;;;;;;;11.52;3.47;;;16.40;99.90;;;;;;5052009;28;20521;-72
2022/06/12 05:53:45;;;;;;;15.23;3.53;;;16.40;99.90;;;;;;5051462;28;20028;-72
2022/06/12 05:56:16;;;;;;;10.48;3.70;;;16.40;99.90;;;;;;5052080;28;20029;-73
2022/06/12 05:58:42;;;;;;;14.93;5.22;;;16.50;99.90;;;;;;5049766;28;20032;-73
2022/06/12 06:01:10;;;;;;;12.85;4.07;;;16.50;99.90;;;;;;5047368;28;20032;-73
2022/06/12 06:03:36;;;;;;;13.57;3.92;;;16.50;99.90;;;;;;5076190;28;20066;-73
2022/06/12 06:06:04;;;;;;;14.85;4.85;;;16.50;99.90;;;;;;5056842;28;20029;-73
2022/06/12 06:08:29;;;;;;;14.65;4.15;;;16.60;99.90;;;;;;5056426;28;20049;-74
2022/06/12 06:10:55;;;;;;;13.63;4.65;;;16.70;99.90;;;;;;5055942;28;20142;-74
2022/06/12 06:13:21;;;;;;;19.02;5.05;;;16.70;99.90;;;;;;5056247;28;20041;-74
2022/06/12 06:15:50;;;;;;;16.10;5.22;;;16.80;99.90;;;;;;5038826;28;20072;-73
2022/06/12 06:18:17;;;;;;;22.00;4.90;;;16.80;99.90;;;;;;5036158;28;20026;-74
2022/06/12 06:20:43;;;;;;;17.02;4.88;;;16.80;99.90;;;;;;5041969;28;20017;-74
2022/06/12 06:23:09;;;;;;;12.00;4.53;;;16.80;99.90;;;;;;5055253;28;20028;-74
2022/06/12 06:25:35;;;;;;;16.17;5.22;;;16.90;99.90;;;;;;5055894;28;20032;-74
2022/06/12 06:28:02;;;;;;;14.25;4.50;;;16.90;99.90;;;;;;5055824;28;20029;-75
2022/06/12 06:30:29;;;;;;;15.40;4.85;;;16.90;99.90;;;;;;5055649;28;20025;-75
2022/06/12 06:32:55;;;;;;;22.98;4.30;;;17.00;99.90;;;;;;5055365;28;20485;-74
2022/06/12 06:35:22;;;;;;;17.83;5.75;;;17.10;99.90;;;;;;5044163;28;20360;-75
2022/06/12 06:37:49;;;;;;;19.05;4.78;;;17.20;99.90;;;;;;5035847;28;20033;-74
2022/06/12 06:40:16;;;;;;;16.35;4.28;;;17.30;99.90;;;;;;5035077;28;20104;-74
2022/06/12 06:42:42;;;;;;;13.68;4.15;;;17.40;99.90;;;;;;5074925;28;20037;-74
2022/06/12 06:47:54;;;;;;;16.15;4.20;;;17.70;99.90;;;;;;5066716;28;20040;-75
2022/06/12 06:50:21;;;;;;;14.98;4.20;;;17.90;99.90;;;;;;5054954;28;20029;-74
2022/06/12 06:52:47;;;;;;;17.65;4.55;;;18.00;99.90;;;;;;5055005;28;20029;-74
2022/06/12 06:55:13;;;;;;;17.25;5.03;;;18.20;99.90;;;;;;5045228;28;20021;-74
2022/06/12 06:57:43;;;;;;;18.95;4.95;;;18.30;99.90;;;;;;5054336;28;20389;-74
2022/06/12 07:00:15;;;;;;;23.50;4.13;;;18.50;99.90;;;;;;5054779;28;20118;-74
2022/06/12 07:02:41;;;;;;;15.82;3.60;;;18.70;99.90;;;;;;5054591;28;20049;-74
2022/06/12 07:05:07;;;;;;;17.02;4.22;;;18.90;99.90;;;;;;5054918;28;20051;-74
2022/06/12 07:07:34;;;;;;;15.00;4.47;;;19.00;99.90;;;;;;5052704;28;20465;-75
2022/06/12 07:10:01;;;;;;;17.67;4.47;;;19.20;99.90;;;;;;5033826;28;20029;-75
2022/06/12 07:12:27;;;;;;;10.98;5.15;;;19.30;99.90;;;;;;5034890;28;20053;-75
2022/06/12 07:14:53;;;;;;;13.77;4.15;;;19.20;99.90;;;;;;5034999;28;20026;-71
2022/06/12 07:17:19;;;;;;;16.25;5.00;;;19.40;99.90;;;;;;5035129;28;20029;-73
2022/06/12 07:19:44;;;;;;;17.08;3.97;;;19.60;99.90;;;;;;5034274;28;20467;-74
2022/06/12 07:22:10;;;;;;;19.85;4.95;;;19.80;99.90;;;;;;5038730;28;20044;-74
2022/06/12 07:24:36;;;;;;;17.73;4.78;;;19.90;99.90;;;;;;5052056;28;20433;-74
2022/06/12 07:27:03;;;;;;;16.95;4.57;;;20.10;99.90;;;;;;5054579;28;20028;-74
2022/06/12 07:29:28;;;;;;;19.30;5.70;;;20.20;99.90;;;;;;5047749;28;20056;-74
2022/06/12 07:31:54;;;;;;;17.85;5.10;;;20.30;99.90;;;;;;5036880;28;20115;-74
2022/06/12 07:34:20;;;;;;;17.85;4.70;;;20.30;99.90;;;;;;5054063;28;20075;-73
2022/06/12 07:36:49;;;;;;;18.05;5.18;;;20.30;99.90;;;;;;5051027;28;20029;-75
2022/06/12 07:39:20;;;;;;;18.38;4.13;;;20.30;99.90;;;;;;5054626;28;20432;-75
2022/06/12 07:41:48;;;;;;;16.92;4.53;;;20.50;99.90;;;;;;5054106;28;20118;-75
2022/06/12 07:44:16;;;;;;;18.65;4.18;;;20.70;99.90;;;;;;5049847;28;20155;-75
2022/06/12 07:46:42;;;;;;;16.60;5.32;;;20.90;99.90;;;;;;5060216;28;20024;-74
2022/06/12 07:49:08;;;;;;;15.88;4.15;;;21.00;99.90;;;;;;5074294;28;20035;-75
2022/06/12 07:51:35;;;;;;;14.18;3.60;;;21.10;99.90;;;;;;5067714;28;20110;-76
2022/06/12 07:54:00;;;;;;;23.90;5.05;;;21.30;99.90;;;;;;5047214;28;20425;-75
2022/06/12 07:56:26;;;;;;;19.27;4.68;;;21.40;99.90;;;;;;5036957;28;20407;-75
2022/06/12 07:58:53;;;;;;;18.70;4.60;;;21.60;99.90;;;;;;5034363;28;20433;-75
2022/06/12 08:01:24;;;;;;;16.92;4.75;;;21.70;99.90;;;;;;5033856;28;20018;-76
2022/06/12 08:03:50;;;;;;;15.50;3.78;;;21.80;99.90;;;;;;5058735;28;20449;-76
2022/06/12 08:06:15;;;;;;;11.75;3.45;;;22.00;99.90;;;;;;5073971;28;20048;-76
2022/06/12 08:08:41;;;;;;;16.52;4.20;;;22.00;99.90;;;;;;5038230;28;20025;-76
2022/06/12 08:11:07;;;;;;;12.43;3.35;;;22.10;99.90;;;;;;5033178;28;20479;-76
2022/06/12 08:13:33;;;;;;;17.35;3.92;;;22.10;99.90;;;;;;5033890;28;20481;-76
2022/06/12 08:15:59;;;;;;;18.52;4.47;;;22.10;99.90;;;;;;5034111;28;20543;-76
2022/06/12 08:18:25;;;;;;;15.43;3.92;;;22.30;99.90;;;;;;5033712;28;20022;-75
2022/06/12 08:20:56;;;;;;;10.20;3.42;;;22.40;99.90;;;;;;5038232;28;20033;-75
2022/06/12 08:23:26;;;;;;;14.85;4.50;;;22.60;99.90;;;;;;5038233;28;20051;-75
2022/06/12 08:25:59;;;;;;;11.73;3.75;;;22.70;99.90;;;;;;5033069;28;20053;-75
2022/06/12 08:28:28;;;;;;;9.68;3.28;;;22.70;99.90;;;;;;5057125;28;20029;-76
2022/06/12 08:30:54;;;;;;;11.25;2.88;;;22.70;99.90;;;;;;5064356;28;20029;-75
2022/06/12 08:33:21;;;;;;;14.07;4.55;;;22.70;99.90;;;;;;5052129;28;20124;-76
2022/06/12 08:35:47;;;;;;;10.45;3.95;;;22.90;99.90;;;;;;5053671;28;20056;-76
2022/06/12 08:38:12;;;;;;;9.40;3.38;;;23.10;99.90;;;;;;5053618;28;20520;-75
2022/06/12 08:40:48;;;;;;;13.82;3.25;;;23.30;99.90;;;;;;5053607;28;20413;-75
2022/06/12 08:43:19;;;;;;;8.13;3.13;;;23.30;99.90;;;;;;5052703;28;20358;-76
2022/06/12 08:45:49;;;;;;;9.38;3.20;;;23.30;99.90;;;;;;5051737;28;20029;-75
2022/06/12 08:48:27;;;;;;;12.25;3.95;;;23.50;99.90;;;;;;5038332;28;20029;-75
2022/06/12 08:51:03;;;;;;;13.63;4.15;;;23.50;99.90;;;;;;5045576;28;20108;-76
2022/06/12 08:54:11;;;;;;;10.25;2.90;;;23.60;99.90;;;;;;5032818;28;20068;-74
2022/06/12 08:57:04;;;;;;;12.73;3.05;;;23.90;99.90;;;;;;5053167;28;20040;-76
2022/06/12 08:59:43;;;;;;;11.00;3.50;;;24.10;99.90;;;;;;5052059;28;20023;-75
2022/06/12 09:02:23;;;;;;;10.88;3.72;;;24.10;99.90;;;;;;5043896;28;20035;-76
2022/06/12 09:04:49;;;;;;;11.38;4.00;;;24.00;99.90;;;;;;5044553;28;20519;-75
2022/06/12 09:07:50;;;;;;;11.07;3.47;;;24.30;99.90;;;;;;5042739;28;20100;-74
2022/06/12 09:10:41;;;;;;;12.35;3.50;;;24.10;99.90;;;;;;5040501;28;20021;-73
2022/06/12 09:13:31;;;;;;;12.38;3.80;;;24.30;99.90;;;;;;5039286;28;20410;-75
2022/06/12 09:15:56;;;;;;;11.23;3.28;;;24.30;99.90;;;;;;5040431;28;20075;-75
2022/06/12 09:18:29;;;;;;;12.20;3.13;;;24.20;99.50;;;;;;5042606;28;20017;-76
2022/06/12 09:21:11;;;;;;;9.13;2.67;;;24.10;99.80;;;;;;5043598;28;20082;-74
2022/06/12 09:23:55;;;;;;;8.45;2.47;;;24.10;99.70;;;;;;5046346;28;20131;-74
2022/06/12 09:27:08;;;;;;;9.85;2.90;;;24.20;98.90;;;;;;5047265;28;20037;-75
2022/06/12 09:30:03;;;;;;;8.63;2.92;;;24.50;97.90;;;;;;5044383;28;20033;-74
2022/06/12 09:32:44;;;;;;;10.50;3.33;;;24.70;98.60;;;;;;5050516;28;20040;-75
2022/06/12 09:35:24;;;;;;;12.23;3.10;;;24.50;97.60;;;;;;5047597;28;20047;-74
2022/06/12 09:38:21;;;;;;;10.40;2.78;;;24.40;97.60;;;;;;5046267;28;20125;-74
2022/06/12 09:40:59;;;;;;;9.07;3.25;;;24.10;98.10;;;;;;5043436;28;20037;-72
2022/06/12 09:43:35;;;;;;;14.88;4.03;;;23.80;99.10;;;;;;5052191;28;20074;-75
2022/06/12 09:46:14;;;;;;;11.57;3.42;;;23.60;99.00;;;;;;5043595;28;20649;-75
2022/06/12 09:48:56;;;;;;;10.98;3.28;;;23.80;99.40;;;;;;5047654;28;20017;-74
2022/06/12 09:51:28;;;;;;;12.32;3.13;;;24.10;98.50;;;;;;5048970;28;20033;-74
2022/06/12 09:54:08;;;;;;;11.95;4.35;;;24.30;98.10;;;;;;5044583;28;20031;-74
2022/06/12 09:56:48;;;;;;;11.02;3.10;;;24.50;98.60;;;;;;5046580;28;20465;-75
2022/06/12 09:59:40;;;;;;;11.85;2.83;;;24.80;98.60;;;;;;5044990;28;20025;-75
2022/06/12 10:02:18;;;;;;;10.82;2.45;;;25.10;97.60;;;;;;5047843;28;20021;-75
2022/06/12 10:05:13;;;;;;;8.88;2.72;;;25.00;97.20;;;;;;5047702;28;21016;-75
2022/06/12 10:07:57;;;;;;;11.63;2.58;;;25.10;96.30;;;;;;5049656;28;20025;-75
2022/06/12 10:10:40;;;;;;;8.05;2.75;;;25.20;96.50;;;;;;5044719;28;20021;-78
2022/06/12 10:13:20;;;;;;;5.15;2.55;;;25.40;97.10;;;;;;5043383;28;20073;-75
2022/06/12 10:15:51;;;;;;;6.65;2.42;;;25.60;95.50;;;;;;5046512;28;20033;-74
2022/06/12 10:18:24;;;;;;;7.70;2.45;;;25.50;93.80;;;;;;5046300;28;20044;-75
2022/06/12 10:20:54;;;;;;;5.82;2.10;;;25.80;95.20;;;;;;5045787;28;20022;-75
2022/06/12 10:23:21;;;;;;;26.33;4.20;;;26.00;94.00;;;;;;5048769;28;20481;-75
2022/06/12 10:25:52;;;;;;;9.02;2.33;;;25.80;95.50;;;;;;5067797;28;20031;-76
2022/06/12 10:28:23;;;;;;;10.52;2.50;;;25.80;95.30;;;;;;5068714;28;20028;-74
2022/06/12 10:30:58;;;;;;;6.30;2.03;;;25.50;94.30;;;;;;5054538;28;20021;-75
2022/06/12 10:33:35;;;;;;;7.38;2.17;;;25.40;94.60;;;;;;5054763;28;20033;-75
2022/06/12 10:36:03;;;;;;;8.60;2.28;;;25.60;94.70;;;;;;5046271;28;20064;-74
2022/06/12 10:38:35;;;;;;;10.45;2.75;;;25.70;95.20;;;;;;5044434;28;20174;-75
2022/06/12 10:41:07;;;;;;;8.05;2.80;;;25.90;93.70;;;;;;5045332;28;20014;-75
2022/06/12 10:43:36;;;;;;;10.90;2.78;;;25.80;94.20;;;;;;5042801;28;20509;-75
2022/06/12 10:46:24;;;;;;;6.85;2.55;;;25.90;94.10;;;;;;5042554;28;20021;-74
2022/06/12 10:49:16;;;;;;;6.47;2.55;;;26.00;93.60;;;;;;5043984;28;20022;-75
2022/06/12 10:51:43;;;;;;;9.45;2.60;;;26.00;94.40;;;;;;5043616;28;20120;-73
2022/06/12 10:54:26;;;;;;;8.02;2.50;;;26.20;94.20;;;;;;5045263;28;20079;-74
2022/06/12 10:57:14;;;;;;;8.65;2.80;;;25.60;94.50;;;;;;5045502;28;20025;-75
2022/06/12 11:00:09;;;;;;;9.95;3.13;;;25.70;95.30;;;;;;5049742;28;20351;-75
2022/06/12 11:02:58;;;;;;;8.70;2.70;;;25.90;94.20;;;;;;5044589;28;20037;-75
2022/06/12 11:05:48;;;;;;;6.80;2.53;;;25.50;93.80;;;;;;5040527;28;20473;-75
2022/06/12 11:09:01;;;;;;;9.32;3.20;;;25.20;94.10;;;;;;5051738;28;20056;-74
2022/06/12 11:11:39;;;;;;;8.68;2.75;;;25.30;95.70;;;;;;5047394;28;20049;-75
2022/06/12 11:14:19;;;;;;;8.02;2.83;;;25.70;95.70;;;;;;5051180;28;20400;-75
2022/06/12 11:17:02;;;;;;;7.28;2.88;;;26.00;93.50;;;;;;5048888;28;20484;-76
2022/06/12 11:19:55;;;;;;;8.15;2.90;;;26.00;93.50;;;;;;5053531;28;20083;-74
2022/06/12 11:22:23;;;;;;;5.90;2.50;;;25.80;94.30;;;;;;5054918;28;20032;-77
2022/06/12 11:25:01;;;;;;;10.82;3.15;;;25.70;95.00;;;;;;5054494;28;20108;-78
2022/06/12 11:27:41;;;;;;;10.10;3.20;;;26.00;94.80;;;;;;5057135;28;20100;-75
2022/06/12 11:30:25;;;;;;;8.60;2.83;;;25.80;94.80;;;;;;5046796;28;20067;-76
2022/06/12 11:33:28;;;;;;;9.35;2.78;;;26.20;94.10;;;;;;5034718;28;20091;-76
2022/06/12 11:36:19;;;;;;;13.15;2.80;;;26.40;94.30;;;;;;5049524;28;20047;-76
2022/06/12 11:38:56;;;;;;;7.70;3.15;;;26.30;93.90;;;;;;5046249;28;20052;-75
2022/06/12 11:41:28;;;;;;;9.93;2.97;;;26.20;93.20;;;;;;5051691;28;20029;-75
2022/06/12 11:44:19;;;;;;;7.22;2.80;;;26.20;93.60;;;;;;5068252;28;20044;-75
2022/06/12 11:47:10;;;;;;;6.50;2.53;;;25.80;93.00;;;;;;5072244;28;20056;-75
2022/06/12 11:49:47;;;;;;;5.53;2.70;;;26.00;93.40;;;;;;5054949;28;20135;-75
2022/06/12 11:52:34;;;;;;;7.22;2.95;;;26.00;92.80;;;;;;5053970;28;20040;-76
2022/06/12 11:55:17;;;;;;;7.53;2.80;;;25.80;92.10;;;;;;5053419;28;20021;-75
2022/06/12 11:58:04;;;;;;;5.88;2.60;;;25.60;93.20;;;;;;5062328;28;20021;-79
2022/06/12 12:00:58;;;;;;;8.15;2.92;;;25.80;93.50;;;;;;5052664;28;20032;-76
2022/06/12 12:03:48;;;;;;;7.82;2.80;;;26.20;93.30;;;;;;5054359;28;20128;-76
2022/06/12 12:06:52;;;;;;;8.05;3.00;;;26.50;93.70;;;;;;5050807;28;20032;-77
2022/06/12 12:09:32;;;;;;;7.80;3.05;;;26.60;93.10;;;;;;5033543;28;20072;-76
2022/06/12 12:12:05;;;;;;;4.22;2.50;;;26.70;93.40;;;;;;5050105;28;20037;-78
2022/06/12 12:14:37;;;;;;;11.63;3.20;;;26.90;94.20;;;;;;5053881;28;20079;-78
2022/06/12 12:17:18;;;;;;;9.05;3.00;;;27.00;93.10;;;;;;5053462;28;20021;-76
2022/06/12 12:19:52;;;;;;;8.17;2.50;;;27.10;93.00;;;;;;5053446;28;20402;-74
2022/06/12 12:22:56;;;;;;;11.93;3.28;;;27.00;91.20;;;;;;5060112;28;20028;-79
2022/06/12 12:25:36;;;;;;;7.28;2.70;;;26.60;91.30;;;;;;5051766;28;20036;-76
2022/06/12 12:28:14;;;;;;;9.63;2.65;;;26.60;91.50;;;;;;5052294;28;20492;-76
2022/06/12 12:30:42;;;;;;;6.15;2.55;;;26.90;92.40;;;;;;5053603;28;20024;-78
2022/06/12 12:33:18;;;;;;;9.70;2.40;;;27.10;91.00;;;;;;5053543;28;20125;-76
2022/06/12 12:41:38;;;;;;;5.82;2.28;;;27.10;88.20;;;;;;5043659;28;20072;-78
2022/06/12 12:44:03;;;;;;;8.43;2.35;;;27.30;91.00;;;;;;5033101;28;20033;-77
2022/06/12 12:46:59;;;;;;;8.00;2.78;;;27.50;89.80;;;;;;5033688;28;20075;-77
2022/06/12 12:49:28;;;;;;;6.07;2.42;;;27.40;88.70;;;;;;5032931;28;20037;-75
2022/06/12 12:52:21;;;;;;;6.15;2.22;;;27.70;90.00;;;;;;5033157;28;20091;-76
2022/06/12 12:54:51;;;;;;;9.07;2.80;;;27.70;88.10;;;;;;5037885;28;20029;-76
2022/06/12 12:57:36;;;;;;;7.05;2.25;;;27.70;89.70;;;;;;5047860;28;20025;-77
2022/06/12 13:00:04;;;;;;;6.50;1.92;;;27.70;89.50;;;;;;5040541;28;20020;-83
2022/06/12 13:02:40;;;;;;;5.28;2.40;;;27.60;87.30;;;;;;5053458;28;20130;-78
2022/06/12 13:05:20;;;;;;;4.85;2.10;;;27.20;86.30;;;;;;5052904;28;20070;-77
2022/06/12 13:07:54;;;;;;;6.38;2.33;;;27.30;90.10;;;;;;5051404;28;20434;-78
2022/06/12 13:10:50;;;;;;;6.82;2.67;;;27.40;91.40;;;;;;5049543;28;20102;-79
2022/06/12 13:13:47;;;;;;;9.27;2.83;;;27.20;89.30;;;;;;5051528;28;20055;-77
2022/06/12 13:16:15;;;;;;;6.53;2.38;;;27.10;87.90;;;;;;5050348;28;20075;-78
2022/06/12 13:18:44;;;;;;;6.63;2.67;;;27.30;90.80;;;;;;5052844;28;20025;-78
2022/06/12 13:21:31;;;;;;;6.65;2.60;;;27.00;90.00;;;;;;5052467;28;20449;-76
2022/06/12 13:24:14;;;;;;;8.18;2.80;;;26.60;90.30;;;;;;5051514;28;20478;-77
2022/06/12 13:26:42;;;;;;;7.85;2.78;;;26.60;90.60;;;;;;5052545;28;20029;-76
2022/06/12 13:29:18;;;;;;;10.90;2.75;;;26.70;90.50;;;;;;5053394;28;20105;-75
2022/06/12 13:32:01;;;;;;;9.40;3.05;;;26.70;90.40;;;;;;5036713;28;20075;-76
2022/06/12 13:34:28;;;;;;;8.70;3.10;;;26.60;90.90;;;;;;5032814;28;20017;-77
2022/06/12 13:36:55;;;;;;;10.00;3.03;;;26.30;90.10;;;;;;5051606;28;20738;-77